sensor_id;sensor_type;location;lat;lon;timestamp;temperature;humidity
8965;DHT22;4517;49.020;12.066;2023-02-28T00:00:33;-2.50;99.90
8965;DHT22;4517;49.020;12.066;2023-02-28T00:02:59;-2.50;99.90
8965;DHT22;4517;49.020;12.066;2023-02-28T00:05:26;-2.50;99.90
8965;DHT22;4517;49.020;12.066;2023-02-28T00:07:53;-2.50;99.90
8965;DHT22;4517;49.020;12.066;2023-02-28T00:10:21;-2.60;99.90
8965;DHT22;4517;49.020;12.066;2023-02-28T00:12:50;-2.50;99.90
8965;DHT22;4517;49.020;12.066;2023-02-28T00:15:16;-2.50;99.90
8965;DHT22;4517;49.020;12.066;2023-02-28T00:17:42;-2.40;99.90
8965;DHT22;4517;49.020;12.066;2023-02-28T00:20:09;-2.40;99.90
8965;DHT22;4517;49.020;12.066;2023-02-28T00:22:36;-2.40;99.90
8965;DHT22;4517;49.020;12.066;2023-02-28T00:25:02;-2.50;99.90
8965;DHT22;4517;49.020;12.066;2023-02-28T00:27:29;-2.40;99.90
8965;DHT22;4517;49.020;12.066;2023-02-28T00:29:54;-2.50;99.90
8965;DHT22;4517;49.020;12.066;2023-02-28T00:32:20;-2.60;99.90
8965;DHT22;4517;49.020;12.066;2023-02-28T00:34:45;-2.50;99.90
8965;DHT22;4517;49.020;12.066;2023-02-28T00:37:11;-2.50;99.90
8965;DHT22;4517;49.020;12.066;2023-02-28T00:39:38;-2.50;99.90
8965;DHT22;4517;49.020;12.066;2023-02-28T00:42:04;-2.60;99.90
8965;DHT22;4517;49.020;12.066;2023-02-28T00:44:31;-2.60;99.90
8965;DHT22;4517;49.020;12.066;2023-02-28T00:46:57;-2.60;99.90
8965;DHT22;4517;49.020;12.066;2023-02-28T00:49:23;-2.60;99.90
8965;DHT22;4517;49.020;12.066;2023-02-28T00:51:49;-2.70;99.90
8965;DHT22;4517;49.020;12.066;2023-02-28T00:54:15;-2.70;99.90
8965;DHT22;4517;49.020;12.066;2023-02-28T00:56:41;-2.70;99.90
8965;DHT22;4517;49.020;12.066;2023-02-28T00:59:06;-2.70;99.90
8965;DHT22;4517;49.020;12.066;2023-02-28T01:01:32;-2.60;99.90
8965;DHT22;4517;49.020;12.066;2023-02-28T01:03:58;-2.70;99.90
8965;DHT22;4517;49.020;12.066;2023-02-28T01:06:23;-2.70;99.90
8965;DHT22;4517;49.020;12.066;2023-02-28T01:08:49;-2.70;99.90
8965;DHT22;4517;49.020;12.066;2023-02-28T01:11:16;-2.60;99.90
8965;DHT22;4517;49.020;12.066;2023-02-28T01:13:43;-2.60;99.90
8965;DHT22;4517;49.020;12.066;2023-02-28T01:16:09;-2.60;99.90
8965;DHT22;4517;49.020;12.066;2023-02-28T01:18:36;-2.60;99.90
8965;DHT22;4517;49.020;12.066;2023-02-28T01:21:10;-2.60;99.90
8965;DHT22;4517;49.020;12.066;2023-02-28T01:23:36;-2.80;99.90
8965;DHT22;4517;49.020;12.066;2023-02-28T01:26:07;-2.70;99.90
8965;DHT22;4517;49.020;12.066;2023-02-28T01:28:33;-2.80;99.90
8965;DHT22;4517;49.020;12.066;2023-02-28T01:30:58;-2.70;99.90
8965;DHT22;4517;49.020;12.066;2023-02-28T01:33:24;-2.60;99.90
8965;DHT22;4517;49.020;12.066;2023-02-28T01:35:58;-2.70;99.90
8965;DHT22;4517;49.020;12.066;2023-02-28T01:38:23;-2.80;99.90
8965;DHT22;4517;49.020;12.066;2023-02-28T01:40:49;-2.80;99.90
8965;DHT22;4517;49.020;12.066;2023-02-28T01:43:39;-2.70;99.90
8965;DHT22;4517;49.020;12.066;2023-02-28T01:46:15;-2.70;99.90
8965;DHT22;4517;49.020;12.066;2023-02-28T01:48:46;-2.70;99.90
8965;DHT22;4517;49.020;12.066;2023-02-28T01:51:17;-2.70;99.90
8965;DHT22;4517;49.020;12.066;2023-02-28T01:53:51;-2.70;99.90
8965;DHT22;4517;49.020;12.066;2023-02-28T01:56:25;-2.70;99.90
8965;DHT22;4517;49.020;12.066;2023-02-28T01:58:52;-2.70;99.90
8965;DHT22;4517;49.020;12.066;2023-02-28T02:01:20;-2.70;99.90
8965;DHT22;4517;49.020;12.066;2023-02-28T02:03:52;-2.80;99.90
8965;DHT22;4517;49.020;12.066;2023-02-28T02:06:22;-2.80;99.90
8965;DHT22;4517;49.020;12.066;2023-02-28T02:08:48;-2.80;99.90
8965;DHT22;4517;49.020;12.066;2023-02-28T02:11:17;-2.80;99.90
8965;DHT22;4517;49.020;12.066;2023-02-28T02:14:06;-2.80;99.90
8965;DHT22;4517;49.020;12.066;2023-02-28T02:20:16;-2.80;99.90
8965;DHT22;4517;49.020;12.066;2023-02-28T02:26:10;-2.80;99.90
8965;DHT22;4517;49.020;12.066;2023-02-28T02:29:06;-2.90;99.90
8965;DHT22;4517;49.020;12.066;2023-02-28T02:34:58;-2.90;99.90
8965;DHT22;4517;49.020;12.066;2023-02-28T02:40:15;-2.80;99.90
8965;DHT22;4517;49.020;12.066;2023-02-28T02:43:01;-2.90;99.90
8965;DHT22;4517;49.020;12.066;2023-02-28T02:45:30;-2.80;99.90
8965;DHT22;4517;49.020;12.066;2023-02-28T02:48:02;-2.90;99.90
8965;DHT22;4517;49.020;12.066;2023-02-28T02:50:34;-2.90;99.90
8965;DHT22;4517;49.020;12.066;2023-02-28T02:53:02;-3.00;99.90
8965;DHT22;4517;49.020;12.066;2023-02-28T02:55:32;-3.00;99.90
8965;DHT22;4517;49.020;12.066;2023-02-28T02:58:05;-3.00;99.90
8965;DHT22;4517;49.020;12.066;2023-02-28T03:00:37;-3.00;99.90
8965;DHT22;4517;49.020;12.066;2023-02-28T03:03:04;-3.00;99.90
8965;DHT22;4517;49.020;12.066;2023-02-28T03:05:46;-3.00;99.90
8965;DHT22;4517;49.020;12.066;2023-02-28T03:08:12;-3.00;99.90
8965;DHT22;4517;49.020;12.066;2023-02-28T03:10:43;-2.90;99.90
8965;DHT22;4517;49.020;12.066;2023-02-28T03:16:24;-3.00;99.90
8965;DHT22;4517;49.020;12.066;2023-02-28T03:19:30;-3.00;99.90
8965;DHT22;4517;49.020;12.066;2023-02-28T03:24:55;-3.10;99.90
8965;DHT22;4517;49.020;12.066;2023-02-28T03:27:29;-3.10;99.90
8965;DHT22;4517;49.020;12.066;2023-02-28T03:30:06;-3.30;99.90
8965;DHT22;4517;49.020;12.066;2023-02-28T03:32:55;-3.40;99.90
8965;DHT22;4517;49.020;12.066;2023-02-28T03:35:31;-3.10;99.90
8965;DHT22;4517;49.020;12.066;2023-02-28T03:38:10;-3.20;99.90
8965;DHT22;4517;49.020;12.066;2023-02-28T03:40:42;-3.00;99.90
8965;DHT22;4517;49.020;12.066;2023-02-28T03:43:12;-3.10;99.90
8965;DHT22;4517;49.020;12.066;2023-02-28T03:45:41;-3.00;99.90
8965;DHT22;4517;49.020;12.066;2023-02-28T03:48:13;-2.90;99.90
8965;DHT22;4517;49.020;12.066;2023-02-28T03:50:43;-2.90;99.90
8965;DHT22;4517;49.020;12.066;2023-02-28T03:53:19;-3.10;99.90
8965;DHT22;4517;49.020;12.066;2023-02-28T03:56:12;-2.90;99.90
8965;DHT22;4517;49.020;12.066;2023-02-28T04:01:42;-3.10;99.90
8965;DHT22;4517;49.020;12.066;2023-02-28T04:04:09;-3.10;99.90
8965;DHT22;4517;49.020;12.066;2023-02-28T04:06:36;-3.10;99.90
8965;DHT22;4517;49.020;12.066;2023-02-28T04:09:03;-3.10;99.90
8965;DHT22;4517;49.020;12.066;2023-02-28T04:11:35;-3.00;99.90
8965;DHT22;4517;49.020;12.066;2023-02-28T04:14:02;-3.10;99.90
8965;DHT22;4517;49.020;12.066;2023-02-28T04:16:29;-3.10;99.90
8965;DHT22;4517;49.020;12.066;2023-02-28T04:18:54;-3.10;99.90
8965;DHT22;4517;49.020;12.066;2023-02-28T04:21:28;-3.10;99.90
8965;DHT22;4517;49.020;12.066;2023-02-28T04:23:54;-3.20;99.90
8965;DHT22;4517;49.020;12.066;2023-02-28T04:26:19;-3.00;99.90
8965;DHT22;4517;49.020;12.066;2023-02-28T04:28:45;-3.00;99.90
8965;DHT22;4517;49.020;12.066;2023-02-28T04:31:10;-3.00;99.90
8965;DHT22;4517;49.020;12.066;2023-02-28T04:33:36;-2.90;99.90
8965;DHT22;4517;49.020;12.066;2023-02-28T04:36:04;-3.00;99.90
8965;DHT22;4517;49.020;12.066;2023-02-28T04:38:38;-3.10;99.90
8965;DHT22;4517;49.020;12.066;2023-02-28T04:41:04;-2.90;99.90
8965;DHT22;4517;49.020;12.066;2023-02-28T04:43:30;-3.00;99.90
8965;DHT22;4517;49.020;12.066;2023-02-28T04:45:57;-3.00;99.90
8965;DHT22;4517;49.020;12.066;2023-02-28T04:48:24;-2.90;99.90
8965;DHT22;4517;49.020;12.066;2023-02-28T04:50:50;-2.90;99.90
8965;DHT22;4517;49.020;12.066;2023-02-28T04:53:17;-2.80;99.90
8965;DHT22;4517;49.020;12.066;2023-02-28T04:55:42;-2.70;99.90
8965;DHT22;4517;49.020;12.066;2023-02-28T04:58:08;-2.80;99.90
8965;DHT22;4517;49.020;12.066;2023-02-28T05:00:34;-2.80;99.90
8965;DHT22;4517;49.020;12.066;2023-02-28T05:02:59;-2.80;99.90
8965;DHT22;4517;49.020;12.066;2023-02-28T05:05:25;-2.80;99.90
8965;DHT22;4517;49.020;12.066;2023-02-28T05:07:50;-2.80;99.90
8965;DHT22;4517;49.020;12.066;2023-02-28T05:10:16;-2.70;99.90
8965;DHT22;4517;49.020;12.066;2023-02-28T05:12:42;-2.70;99.90
8965;DHT22;4517;49.020;12.066;2023-02-28T05:15:13;-2.60;99.90
8965;DHT22;4517;49.020;12.066;2023-02-28T05:17:39;-2.70;99.90
8965;DHT22;4517;49.020;12.066;2023-02-28T05:20:05;-2.70;99.90
8965;DHT22;4517;49.020;12.066;2023-02-28T05:22:31;-2.70;99.90
8965;DHT22;4517;49.020;12.066;2023-02-28T05:24:57;-2.70;99.90
8965;DHT22;4517;49.020;12.066;2023-02-28T05:27:23;-2.80;99.90
8965;DHT22;4517;49.020;12.066;2023-02-28T05:29:48;-2.70;99.90
8965;DHT22;4517;49.020;12.066;2023-02-28T05:32:14;-2.70;99.90
8965;DHT22;4517;49.020;12.066;2023-02-28T05:34:40;-2.70;99.90
8965;DHT22;4517;49.020;12.066;2023-02-28T05:37:11;-2.80;99.90
8965;DHT22;4517;49.020;12.066;2023-02-28T05:39:37;-2.80;99.90
8965;DHT22;4517;49.020;12.066;2023-02-28T05:42:04;-2.70;99.90
8965;DHT22;4517;49.020;12.066;2023-02-28T05:44:29;-2.80;99.90
8965;DHT22;4517;49.020;12.066;2023-02-28T05:46:55;-2.90;99.90
8965;DHT22;4517;49.020;12.066;2023-02-28T05:49:20;-2.90;99.90
8965;DHT22;4517;49.020;12.066;2023-02-28T05:51:46;-2.90;99.90
8965;DHT22;4517;49.020;12.066;2023-02-28T05:54:12;-2.80;99.90
8965;DHT22;4517;49.020;12.066;2023-02-28T05:56:37;-2.60;99.90
8965;DHT22;4517;49.020;12.066;2023-02-28T05:59:05;-2.60;99.90
8965;DHT22;4517;49.020;12.066;2023-02-28T06:01:42;-2.50;99.90
8965;DHT22;4517;49.020;12.066;2023-02-28T06:04:14;-2.50;99.90
8965;DHT22;4517;49.020;12.066;2023-02-28T06:06:46;-2.50;99.90
8965;DHT22;4517;49.020;12.066;2023-02-28T06:09:12;-2.40;99.90
8965;DHT22;4517;49.020;12.066;2023-02-28T06:11:38;-2.40;99.90
8965;DHT22;4517;49.020;12.066;2023-02-28T06:14:04;-2.50;99.90
8965;DHT22;4517;49.020;12.066;2023-02-28T06:16:31;-2.50;99.90
8965;DHT22;4517;49.020;12.066;2023-02-28T06:18:58;-2.40;99.90
8965;DHT22;4517;49.020;12.066;2023-02-28T06:21:24;-2.30;99.90
8965;DHT22;4517;49.020;12.066;2023-02-28T06:23:50;-2.30;99.90
8965;DHT22;4517;49.020;12.066;2023-02-28T06:26:16;-2.20;99.90
8965;DHT22;4517;49.020;12.066;2023-02-28T06:28:42;-2.20;99.90
8965;DHT22;4517;49.020;12.066;2023-02-28T06:31:09;-2.20;99.90
8965;DHT22;4517;49.020;12.066;2023-02-28T06:33:36;-2.20;99.90
8965;DHT22;4517;49.020;12.066;2023-02-28T06:36:02;-2.10;99.90
8965;DHT22;4517;49.020;12.066;2023-02-28T06:38:27;-2.10;99.90
8965;DHT22;4517;49.020;12.066;2023-02-28T06:40:58;-2.10;99.90
8965;DHT22;4517;49.020;12.066;2023-02-28T06:43:28;-1.90;99.90
8965;DHT22;4517;49.020;12.066;2023-02-28T06:45:58;-1.90;99.90
8965;DHT22;4517;49.020;12.066;2023-02-28T06:48:26;-1.80;99.90
8965;DHT22;4517;49.020;12.066;2023-02-28T06:50:52;-1.80;99.90
8965;DHT22;4517;49.020;12.066;2023-02-28T06:53:18;-1.70;99.90
8965;DHT22;4517;49.020;12.066;2023-02-28T06:55:43;-1.70;99.90
8965;DHT22;4517;49.020;12.066;2023-02-28T06:58:09;-1.60;99.90
8965;DHT22;4517;49.020;12.066;2023-02-28T07:00:44;-1.60;99.90
8965;DHT22;4517;49.020;12.066;2023-02-28T07:03:11;-1.50;99.90
8965;DHT22;4517;49.020;12.066;2023-02-28T07:05:38;-1.50;99.90
8965;DHT22;4517;49.020;12.066;2023-02-28T07:08:05;-1.50;99.90
8965;DHT22;4517;49.020;12.066;2023-02-28T07:10:36;-1.40;99.90
8965;DHT22;4517;49.020;12.066;2023-02-28T07:13:03;-1.40;99.90
8965;DHT22;4517;49.020;12.066;2023-02-28T07:15:29;-1.30;99.90
8965;DHT22;4517;49.020;12.066;2023-02-28T07:17:54;-1.30;99.90
8965;DHT22;4517;49.020;12.066;2023-02-28T07:20:21;-1.30;99.90
8965;DHT22;4517;49.020;12.066;2023-02-28T07:22:48;-1.20;99.90
8965;DHT22;4517;49.020;12.066;2023-02-28T07:25:21;-1.20;99.90
8965;DHT22;4517;49.020;12.066;2023-02-28T07:27:46;-1.20;99.90
8965;DHT22;4517;49.020;12.066;2023-02-28T07:30:12;-1.10;99.90
8965;DHT22;4517;49.020;12.066;2023-02-28T07:32:38;-1.10;99.90
8965;DHT22;4517;49.020;12.066;2023-02-28T07:35:04;-1.00;99.90
8965;DHT22;4517;49.020;12.066;2023-02-28T07:37:30;-1.00;99.90
8965;DHT22;4517;49.020;12.066;2023-02-28T07:39:57;-0.90;99.90
8965;DHT22;4517;49.020;12.066;2023-02-28T07:42:22;-0.90;99.90
8965;DHT22;4517;49.020;12.066;2023-02-28T07:44:48;-0.80;99.90
8965;DHT22;4517;49.020;12.066;2023-02-28T07:47:13;-0.80;99.90
8965;DHT22;4517;49.020;12.066;2023-02-28T07:49:39;-0.70;99.90
8965;DHT22;4517;49.020;12.066;2023-02-28T07:52:06;-0.70;99.90
8965;DHT22;4517;49.020;12.066;2023-02-28T07:54:32;-0.70;99.90
8965;DHT22;4517;49.020;12.066;2023-02-28T07:56:58;-0.60;99.90
8965;DHT22;4517;49.020;12.066;2023-02-28T07:59:25;-0.60;99.90
8965;DHT22;4517;49.020;12.066;2023-02-28T08:01:51;-0.60;99.90
8965;DHT22;4517;49.020;12.066;2023-02-28T08:04:18;-0.50;99.90
8965;DHT22;4517;49.020;12.066;2023-02-28T08:06:43;-0.40;99.90
8965;DHT22;4517;49.020;12.066;2023-02-28T08:09:09;-0.40;99.90
8965;DHT22;4517;49.020;12.066;2023-02-28T08:11:35;-0.30;99.90
8965;DHT22;4517;49.020;12.066;2023-02-28T08:14:01;-0.30;99.90
8965;DHT22;4517;49.020;12.066;2023-02-28T08:16:27;-0.30;99.90
8965;DHT22;4517;49.020;12.066;2023-02-28T08:18:53;-0.30;99.90
8965;DHT22;4517;49.020;12.066;2023-02-28T08:21:19;-0.20;99.90
8965;DHT22;4517;49.020;12.066;2023-02-28T08:23:49;-0.10;99.90
8965;DHT22;4517;49.020;12.066;2023-02-28T08:26:16;-0.10;99.90
8965;DHT22;4517;49.020;12.066;2023-02-28T08:28:42;0.00;99.90
8965;DHT22;4517;49.020;12.066;2023-02-28T08:31:09;0.00;99.90
8965;DHT22;4517;49.020;12.066;2023-02-28T08:33:36;0.10;99.90
8965;DHT22;4517;49.020;12.066;2023-02-28T08:36:02;0.10;99.90
8965;DHT22;4517;49.020;12.066;2023-02-28T08:38:27;0.20;99.90
8965;DHT22;4517;49.020;12.066;2023-02-28T08:41:02;0.20;99.90
8965;DHT22;4517;49.020;12.066;2023-02-28T08:43:28;0.30;99.90
8965;DHT22;4517;49.020;12.066;2023-02-28T08:45:55;0.30;99.90
8965;DHT22;4517;49.020;12.066;2023-02-28T08:48:25;0.40;99.90
8965;DHT22;4517;49.020;12.066;2023-02-28T08:51:03;0.40;99.90
8965;DHT22;4517;49.020;12.066;2023-02-28T08:53:29;0.30;99.90
8965;DHT22;4517;49.020;12.066;2023-02-28T08:56:03;0.50;99.90
8965;DHT22;4517;49.020;12.066;2023-02-28T08:58:29;0.50;99.90
8965;DHT22;4517;49.020;12.066;2023-02-28T09:00:56;0.50;99.90
8965;DHT22;4517;49.020;12.066;2023-02-28T09:03:23;0.60;99.90
8965;DHT22;4517;49.020;12.066;2023-02-28T09:05:56;0.50;99.90
8965;DHT22;4517;49.020;12.066;2023-02-28T09:08:23;0.60;99.90
8965;DHT22;4517;49.020;12.066;2023-02-28T09:10:49;0.70;99.90
8965;DHT22;4517;49.020;12.066;2023-02-28T09:13:14;0.70;99.90
8965;DHT22;4517;49.020;12.066;2023-02-28T09:15:40;0.80;99.90
8965;DHT22;4517;49.020;12.066;2023-02-28T09:18:05;0.70;99.90
8965;DHT22;4517;49.020;12.066;2023-02-28T09:20:31;0.80;99.90
8965;DHT22;4517;49.020;12.066;2023-02-28T09:22:57;1.00;99.90
8965;DHT22;4517;49.020;12.066;2023-02-28T09:25:22;0.90;99.90
8965;DHT22;4517;49.020;12.066;2023-02-28T09:27:48;1.00;99.90
8965;DHT22;4517;49.020;12.066;2023-02-28T09:30:14;1.20;99.90
8965;DHT22;4517;49.020;12.066;2023-02-28T09:32:39;1.20;99.90
8965;DHT22;4517;49.020;12.066;2023-02-28T09:35:05;1.10;99.90
8965;DHT22;4517;49.020;12.066;2023-02-28T09:37:31;1.00;99.90
8965;DHT22;4517;49.020;12.066;2023-02-28T09:39:57;1.20;99.90
8965;DHT22;4517;49.020;12.066;2023-02-28T09:42:31;1.20;99.90
8965;DHT22;4517;49.020;12.066;2023-02-28T09:44:59;1.20;99.90
8965;DHT22;4517;49.020;12.066;2023-02-28T09:47:42;1.10;99.90
8965;DHT22;4517;49.020;12.066;2023-02-28T09:50:30;1.10;99.90
8965;DHT22;4517;49.020;12.066;2023-02-28T09:52:59;1.20;99.90
8965;DHT22;4517;49.020;12.066;2023-02-28T09:55:38;1.10;99.90
8965;DHT22;4517;49.020;12.066;2023-02-28T09:58:05;1.10;99.90
8965;DHT22;4517;49.020;12.066;2023-02-28T10:00:38;1.30;99.90
8965;DHT22;4517;49.020;12.066;2023-02-28T10:03:30;1.40;99.90
8965;DHT22;4517;49.020;12.066;2023-02-28T10:06:14;1.40;99.90
8965;DHT22;4517;49.020;12.066;2023-02-28T10:08:58;1.50;99.90
8965;DHT22;4517;49.020;12.066;2023-02-28T10:11:27;1.60;99.90
8965;DHT22;4517;49.020;12.066;2023-02-28T10:16:44;1.70;99.90
8965;DHT22;4517;49.020;12.066;2023-02-28T10:19:38;1.70;99.90
8965;DHT22;4517;49.020;12.066;2023-02-28T10:22:13;1.60;99.90
8965;DHT22;4517;49.020;12.066;2023-02-28T10:24:46;1.60;99.90
8965;DHT22;4517;49.020;12.066;2023-02-28T10:27:19;1.70;99.90
8965;DHT22;4517;49.020;12.066;2023-02-28T10:29:50;1.70;99.90
8965;DHT22;4517;49.020;12.066;2023-02-28T10:32:25;1.80;99.90
8965;DHT22;4517;49.020;12.066;2023-02-28T10:35:09;1.80;99.90
8965;DHT22;4517;49.020;12.066;2023-02-28T10:37:44;1.80;99.90
8965;DHT22;4517;49.020;12.066;2023-02-28T10:43:21;1.90;99.90
8965;DHT22;4517;49.020;12.066;2023-02-28T11:01:39;2.00;99.90
8965;DHT22;4517;49.020;12.066;2023-02-28T11:04:18;2.10;99.90
8965;DHT22;4517;49.020;12.066;2023-02-28T11:06:44;2.20;99.90
8965;DHT22;4517;49.020;12.066;2023-02-28T11:09:25;2.30;99.90
8965;DHT22;4517;49.020;12.066;2023-02-28T11:11:54;2.30;99.90
8965;DHT22;4517;49.020;12.066;2023-02-28T11:14:28;2.40;99.90
8965;DHT22;4517;49.020;12.066;2023-02-28T11:16:59;2.30;99.90
8965;DHT22;4517;49.020;12.066;2023-02-28T11:19:31;2.30;99.90
8965;DHT22;4517;49.020;12.066;2023-02-28T11:22:02;2.50;99.90
8965;DHT22;4517;49.020;12.066;2023-02-28T11:24:33;2.50;99.90
8965;DHT22;4517;49.020;12.066;2023-02-28T11:27:01;2.50;99.90
8965;DHT22;4517;49.020;12.066;2023-02-28T11:29:29;2.40;99.90
8965;DHT22;4517;49.020;12.066;2023-02-28T11:34:36;2.50;99.90
8965;DHT22;4517;49.020;12.066;2023-02-28T11:37:04;2.60;99.90
8965;DHT22;4517;49.020;12.066;2023-02-28T11:39:34;2.60;99.90
8965;DHT22;4517;49.020;12.066;2023-02-28T11:45:18;2.70;99.90
8965;DHT22;4517;49.020;12.066;2023-02-28T11:48:04;2.60;99.90
8965;DHT22;4517;49.020;12.066;2023-02-28T12:01:41;2.80;99.90
8965;DHT22;4517;49.020;12.066;2023-02-28T12:10:10;2.80;99.90
8965;DHT22;4517;49.020;12.066;2023-02-28T12:15:21;3.00;99.90
8965;DHT22;4517;49.020;12.066;2023-02-28T12:18:10;3.00;99.90
8965;DHT22;4517;49.020;12.066;2023-02-28T12:21:01;3.00;99.90
8965;DHT22;4517;49.020;12.066;2023-02-28T12:26:39;3.00;99.90
8965;DHT22;4517;49.020;12.066;2023-02-28T12:29:28;3.10;99.90
8965;DHT22;4517;49.020;12.066;2023-02-28T12:32:16;3.20;99.90
8965;DHT22;4517;49.020;12.066;2023-02-28T12:34:48;3.10;99.90
8965;DHT22;4517;49.020;12.066;2023-02-28T12:37:19;3.30;99.90
8965;DHT22;4517;49.020;12.066;2023-02-28T12:39:51;3.40;99.90
8965;DHT22;4517;49.020;12.066;2023-02-28T12:42:29;3.50;99.90
8965;DHT22;4517;49.020;12.066;2023-02-28T12:45:15;3.40;99.90
8965;DHT22;4517;49.020;12.066;2023-02-28T12:47:44;3.20;99.90
8965;DHT22;4517;49.020;12.066;2023-02-28T12:50:12;3.20;99.90
8965;DHT22;4517;49.020;12.066;2023-02-28T12:52:43;3.30;99.90
8965;DHT22;4517;49.020;12.066;2023-02-28T12:55:28;3.40;99.90
8965;DHT22;4517;49.020;12.066;2023-02-28T12:58:10;3.50;99.90
8965;DHT22;4517;49.020;12.066;2023-02-28T13:03:44;3.40;99.90
8965;DHT22;4517;49.020;12.066;2023-02-28T13:09:04;3.50;99.90
8965;DHT22;4517;49.020;12.066;2023-02-28T13:11:46;3.50;99.90
8965;DHT22;4517;49.020;12.066;2023-02-28T13:19:31;3.60;99.90
8965;DHT22;4517;49.020;12.066;2023-02-28T13:21:58;3.60;99.90
8965;DHT22;4517;49.020;12.066;2023-02-28T13:24:43;3.50;99.90
8965;DHT22;4517;49.020;12.066;2023-02-28T13:27:20;3.50;99.90
8965;DHT22;4517;49.020;12.066;2023-02-28T13:29:51;3.70;99.90
8965;DHT22;4517;49.020;12.066;2023-02-28T13:32:28;3.90;99.90
8965;DHT22;4517;49.020;12.066;2023-02-28T13:39:55;3.90;99.90
8965;DHT22;4517;49.020;12.066;2023-02-28T13:47:43;3.80;99.90
8965;DHT22;4517;49.020;12.066;2023-02-28T13:55:49;3.70;99.90
8965;DHT22;4517;49.020;12.066;2023-02-28T14:02:01;3.70;99.90
8965;DHT22;4517;49.020;12.066;2023-02-28T14:04:53;3.80;99.90
8965;DHT22;4517;49.020;12.066;2023-02-28T14:07:26;3.80;99.90
8965;DHT22;4517;49.020;12.066;2023-02-28T14:10:02;3.80;99.90
8965;DHT22;4517;49.020;12.066;2023-02-28T14:18:01;3.80;99.90
8965;DHT22;4517;49.020;12.066;2023-02-28T14:20:31;3.80;99.90
8965;DHT22;4517;49.020;12.066;2023-02-28T14:23:12;3.70;99.90
8965;DHT22;4517;49.020;12.066;2023-02-28T14:28:40;3.50;99.90
8965;DHT22;4517;49.020;12.066;2023-02-28T14:31:09;3.50;99.90
8965;DHT22;4517;49.020;12.066;2023-02-28T14:33:48;3.60;99.90
8965;DHT22;4517;49.020;12.066;2023-02-28T14:36:24;3.60;99.90
8965;DHT22;4517;49.020;12.066;2023-02-28T14:38:54;3.60;99.90
8965;DHT22;4517;49.020;12.066;2023-02-28T14:41:31;3.60;99.90
8965;DHT22;4517;49.020;12.066;2023-02-28T14:44:32;3.60;99.90
8965;DHT22;4517;49.020;12.066;2023-02-28T14:47:00;3.60;99.90
8965;DHT22;4517;49.020;12.066;2023-02-28T14:49:36;3.60;99.90
8965;DHT22;4517;49.020;12.066;2023-02-28T14:52:19;3.50;99.90
8965;DHT22;4517;49.020;12.066;2023-02-28T14:54:45;3.50;99.90
8965;DHT22;4517;49.020;12.066;2023-02-28T14:57:33;3.50;99.90
8965;DHT22;4517;49.020;12.066;2023-02-28T15:02:45;3.40;99.90
8965;DHT22;4517;49.020;12.066;2023-02-28T15:05:19;3.50;99.90
8965;DHT22;4517;49.020;12.066;2023-02-28T15:07:48;3.50;99.90
8965;DHT22;4517;49.020;12.066;2023-02-28T15:10:24;3.50;99.90
8965;DHT22;4517;49.020;12.066;2023-02-28T15:12:57;3.40;99.90
8965;DHT22;4517;49.020;12.066;2023-02-28T15:18:05;3.30;99.90
8965;DHT22;4517;49.020;12.066;2023-02-28T15:20:32;3.40;99.90
8965;DHT22;4517;49.020;12.066;2023-02-28T15:23:00;3.40;99.90
8965;DHT22;4517;49.020;12.066;2023-02-28T15:25:26;3.30;99.90
8965;DHT22;4517;49.020;12.066;2023-02-28T15:27:54;3.30;99.90
8965;DHT22;4517;49.020;12.066;2023-02-28T15:30:26;3.30;99.90
8965;DHT22;4517;49.020;12.066;2023-02-28T15:33:23;3.30;99.90
8965;DHT22;4517;49.020;12.066;2023-02-28T15:35:50;3.20;99.90
8965;DHT22;4517;49.020;12.066;2023-02-28T15:38:26;3.10;99.90
8965;DHT22;4517;49.020;12.066;2023-02-28T15:40:57;3.10;99.90
8965;DHT22;4517;49.020;12.066;2023-02-28T15:46:04;3.10;99.90
8965;DHT22;4517;49.020;12.066;2023-02-28T15:51:16;3.00;99.90
8965;DHT22;4517;49.020;12.066;2023-02-28T15:53:50;2.80;99.90
8965;DHT22;4517;49.020;12.066;2023-02-28T15:56:31;2.80;99.90
8965;DHT22;4517;49.020;12.066;2023-02-28T15:58:58;2.70;99.90
8965;DHT22;4517;49.020;12.066;2023-02-28T16:01:29;2.70;99.90
8965;DHT22;4517;49.020;12.066;2023-02-28T16:04:04;2.60;99.90
8965;DHT22;4517;49.020;12.066;2023-02-28T16:08:58;2.50;99.90
8965;DHT22;4517;49.020;12.066;2023-02-28T16:11:24;2.40;99.90
8965;DHT22;4517;49.020;12.066;2023-02-28T16:13:51;2.40;99.90
8965;DHT22;4517;49.020;12.066;2023-02-28T16:16:22;2.30;99.90
8965;DHT22;4517;49.020;12.066;2023-02-28T16:18:48;2.30;99.90
8965;DHT22;4517;49.020;12.066;2023-02-28T16:21:14;2.20;99.90
8965;DHT22;4517;49.020;12.066;2023-02-28T16:23:39;2.20;99.90
8965;DHT22;4517;49.020;12.066;2023-02-28T16:26:06;2.20;99.90
8965;DHT22;4517;49.020;12.066;2023-02-28T16:28:35;2.10;99.90
8965;DHT22;4517;49.020;12.066;2023-02-28T16:31:04;2.10;99.90
8965;DHT22;4517;49.020;12.066;2023-02-28T16:33:34;2.10;99.90
8965;DHT22;4517;49.020;12.066;2023-02-28T16:36:00;2.10;99.90
8965;DHT22;4517;49.020;12.066;2023-02-28T16:38:26;2.10;99.90
8965;DHT22;4517;49.020;12.066;2023-02-28T16:40:53;2.10;99.90
8965;DHT22;4517;49.020;12.066;2023-02-28T16:43:23;2.00;99.90
8965;DHT22;4517;49.020;12.066;2023-02-28T16:45:57;1.90;99.90
8965;DHT22;4517;49.020;12.066;2023-02-28T16:48:25;2.00;99.90
8965;DHT22;4517;49.020;12.066;2023-02-28T16:50:51;1.90;99.90
8965;DHT22;4517;49.020;12.066;2023-02-28T16:53:17;1.90;99.90
8965;DHT22;4517;49.020;12.066;2023-02-28T16:55:43;2.00;99.90
8965;DHT22;4517;49.020;12.066;2023-02-28T16:58:14;2.00;99.90
8965;DHT22;4517;49.020;12.066;2023-02-28T17:00:40;2.00;99.90
8965;DHT22;4517;49.020;12.066;2023-02-28T17:03:14;2.00;99.90
8965;DHT22;4517;49.020;12.066;2023-02-28T17:05:41;2.00;99.90
8965;DHT22;4517;49.020;12.066;2023-02-28T17:08:08;2.00;99.90
8965;DHT22;4517;49.020;12.066;2023-02-28T17:10:34;2.00;99.90
8965;DHT22;4517;49.020;12.066;2023-02-28T17:13:00;2.00;99.90
8965;DHT22;4517;49.020;12.066;2023-02-28T17:15:26;2.00;99.90
8965;DHT22;4517;49.020;12.066;2023-02-28T17:17:52;1.90;99.90
8965;DHT22;4517;49.020;12.066;2023-02-28T17:20:20;1.90;99.90
8965;DHT22;4517;49.020;12.066;2023-02-28T17:22:50;1.90;99.90
8965;DHT22;4517;49.020;12.066;2023-02-28T17:25:16;1.90;99.90
8965;DHT22;4517;49.020;12.066;2023-02-28T17:27:42;1.90;99.90
8965;DHT22;4517;49.020;12.066;2023-02-28T17:30:17;1.90;99.90
8965;DHT22;4517;49.020;12.066;2023-02-28T17:32:43;1.90;99.90
8965;DHT22;4517;49.020;12.066;2023-02-28T17:35:10;1.80;99.90
8965;DHT22;4517;49.020;12.066;2023-02-28T17:37:36;1.80;99.90
8965;DHT22;4517;49.020;12.066;2023-02-28T17:40:02;1.70;99.90
8965;DHT22;4517;49.020;12.066;2023-02-28T17:42:28;1.70;99.90
8965;DHT22;4517;49.020;12.066;2023-02-28T17:44:53;1.70;99.90
8965;DHT22;4517;49.020;12.066;2023-02-28T17:47:19;1.60;99.90
8965;DHT22;4517;49.020;12.066;2023-02-28T17:49:44;1.60;99.90
8965;DHT22;4517;49.020;12.066;2023-02-28T17:52:10;1.60;99.90
8965;DHT22;4517;49.020;12.066;2023-02-28T17:54:36;1.60;99.90
8965;DHT22;4517;49.020;12.066;2023-02-28T17:57:01;1.60;99.90
8965;DHT22;4517;49.020;12.066;2023-02-28T17:59:27;1.60;99.90
8965;DHT22;4517;49.020;12.066;2023-02-28T18:02:00;1.50;99.90
8965;DHT22;4517;49.020;12.066;2023-02-28T18:04:25;1.50;99.90
8965;DHT22;4517;49.020;12.066;2023-02-28T18:06:52;1.60;99.90
8965;DHT22;4517;49.020;12.066;2023-02-28T18:09:20;1.50;99.90
8965;DHT22;4517;49.020;12.066;2023-02-28T18:11:50;1.50;99.90
8965;DHT22;4517;49.020;12.066;2023-02-28T18:14:17;1.50;99.90
8965;DHT22;4517;49.020;12.066;2023-02-28T18:16:44;1.50;99.90